sensor_id;sensor_type;location;lat;lon;timestamp;P1;durP1;ratioP1;P2;durP2;ratioP2
49578;SDS011;35483;50.828;3.228;2023-12-20T00:00:17;8.05;;;3.85;;
49578;SDS011;35483;50.828;3.228;2023-12-20T00:02:43;8.18;;;4.22;;
49578;SDS011;35483;50.828;3.228;2023-12-20T00:05:12;9.50;;;4.38;;
49578;SDS011;35483;50.828;3.228;2023-12-20T00:07:39;11.77;;;4.38;;
49578;SDS011;35483;50.828;3.228;2023-12-20T00:10:04;10.15;;;3.78;;
49578;SDS011;35483;50.828;3.228;2023-12-20T00:12:30;8.65;;;4.00;;
49578;SDS011;35483;50.828;3.228;2023-12-20T00:14:56;7.80;;;3.35;;
49578;SDS011;35483;50.828;3.228;2023-12-20T00:17:23;9.57;;;3.97;;
49578;SDS011;35483;50.828;3.228;2023-12-20T00:19:48;7.03;;;3.38;;
49578;SDS011;35483;50.828;3.228;2023-12-20T00:22:14;6.05;;;3.33;;
49578;SDS011;35483;50.828;3.228;2023-12-20T00:24:40;7.72;;;2.80;;
49578;SDS011;35483;50.828;3.228;2023-12-20T00:27:05;8.77;;;3.67;;
49578;SDS011;35483;50.828;3.228;2023-12-20T00:29:31;8.48;;;3.28;;
49578;SDS011;35483;50.828;3.228;2023-12-20T00:31:57;5.47;;;2.80;;
49578;SDS011;35483;50.828;3.228;2023-12-20T00:34:23;5.95;;;3.22;;
49578;SDS011;35483;50.828;3.228;2023-12-20T00:36:49;8.35;;;3.53;;
49578;SDS011;35483;50.828;3.228;2023-12-20T00:39:15;5.03;;;2.80;;
49578;SDS011;35483;50.828;3.228;2023-12-20T00:41:41;8.75;;;3.47;;
49578;SDS011;35483;50.828;3.228;2023-12-20T00:44:07;5.22;;;3.50;;
49578;SDS011;35483;50.828;3.228;2023-12-20T00:46:33;6.60;;;3.10;;
49578;SDS011;35483;50.828;3.228;2023-12-20T00:48:58;10.65;;;3.78;;
49578;SDS011;35483;50.828;3.228;2023-12-20T00:51:24;7.10;;;3.80;;
49578;SDS011;35483;50.828;3.228;2023-12-20T00:53:50;6.28;;;3.88;;
49578;SDS011;35483;50.828;3.228;2023-12-20T00:56:19;7.13;;;3.35;;
49578;SDS011;35483;50.828;3.228;2023-12-20T00:58:46;12.20;;;3.35;;
49578;SDS011;35483;50.828;3.228;2023-12-20T01:01:11;8.35;;;3.58;;
49578;SDS011;35483;50.828;3.228;2023-12-20T01:03:38;9.15;;;3.65;;
49578;SDS011;35483;50.828;3.228;2023-12-20T01:06:04;6.00;;;3.30;;
49578;SDS011;35483;50.828;3.228;2023-12-20T01:08:30;5.80;;;3.10;;
49578;SDS011;35483;50.828;3.228;2023-12-20T01:10:56;6.70;;;2.85;;
49578;SDS011;35483;50.828;3.228;2023-12-20T01:13:21;7.68;;;3.20;;
49578;SDS011;35483;50.828;3.228;2023-12-20T01:15:47;7.82;;;3.08;;
49578;SDS011;35483;50.828;3.228;2023-12-20T01:18:14;8.35;;;3.00;;
49578;SDS011;35483;50.828;3.228;2023-12-20T01:20:40;9.65;;;3.45;;
49578;SDS011;35483;50.828;3.228;2023-12-20T01:23:06;7.68;;;2.60;;
49578;SDS011;35483;50.828;3.228;2023-12-20T01:25:31;9.90;;;3.42;;
49578;SDS011;35483;50.828;3.228;2023-12-20T01:27:57;8.93;;;3.08;;
49578;SDS011;35483;50.828;3.228;2023-12-20T01:30:23;8.38;;;2.90;;
49578;SDS011;35483;50.828;3.228;2023-12-20T01:32:49;7.00;;;2.50;;
49578;SDS011;35483;50.828;3.228;2023-12-20T01:35:15;7.57;;;2.88;;
49578;SDS011;35483;50.828;3.228;2023-12-20T01:37:41;6.50;;;2.85;;
49578;SDS011;35483;50.828;3.228;2023-12-20T01:40:06;6.55;;;2.97;;
49578;SDS011;35483;50.828;3.228;2023-12-20T01:42:33;5.03;;;2.83;;
49578;SDS011;35483;50.828;3.228;2023-12-20T01:44:58;7.75;;;2.90;;
49578;SDS011;35483;50.828;3.228;2023-12-20T01:47:24;8.00;;;2.97;;
49578;SDS011;35483;50.828;3.228;2023-12-20T01:49:52;5.07;;;2.70;;
49578;SDS011;35483;50.828;3.228;2023-12-20T01:52:18;7.75;;;2.83;;
49578;SDS011;35483;50.828;3.228;2023-12-20T01:54:45;6.97;;;2.97;;
49578;SDS011;35483;50.828;3.228;2023-12-20T01:57:13;10.07;;;3.35;;
49578;SDS011;35483;50.828;3.228;2023-12-20T01:59:39;8.68;;;2.55;;
49578;SDS011;35483;50.828;3.228;2023-12-20T02:02:05;5.35;;;2.33;;
49578;SDS011;35483;50.828;3.228;2023-12-20T02:04:32;6.85;;;2.65;;
49578;SDS011;35483;50.828;3.228;2023-12-20T02:06:58;7.18;;;2.30;;
49578;SDS011;35483;50.828;3.228;2023-12-20T02:09:24;13.75;;;3.20;;
49578;SDS011;35483;50.828;3.228;2023-12-20T02:11:50;7.60;;;2.70;;
49578;SDS011;35483;50.828;3.228;2023-12-20T02:14:16;7.13;;;2.95;;
49578;SDS011;35483;50.828;3.228;2023-12-20T02:16:41;7.25;;;2.80;;
49578;SDS011;35483;50.828;3.228;2023-12-20T02:19:13;7.70;;;2.47;;
49578;SDS011;35483;50.828;3.228;2023-12-20T02:21:40;5.28;;;2.25;;
49578;SDS011;35483;50.828;3.228;2023-12-20T02:24:06;3.53;;;2.25;;
49578;SDS011;35483;50.828;3.228;2023-12-20T02:26:32;10.05;;;3.17;;
49578;SDS011;35483;50.828;3.228;2023-12-20T02:28:59;6.25;;;2.63;;
49578;SDS011;35483;50.828;3.228;2023-12-20T02:31:25;6.47;;;2.65;;
49578;SDS011;35483;50.828;3.228;2023-12-20T02:33:51;5.93;;;3.13;;
49578;SDS011;35483;50.828;3.228;2023-12-20T02:36:17;9.50;;;2.80;;
49578;SDS011;35483;50.828;3.228;2023-12-20T02:38:42;8.05;;;2.83;;
49578;SDS011;35483;50.828;3.228;2023-12-20T02:41:08;9.13;;;2.80;;
49578;SDS011;35483;50.828;3.228;2023-12-20T02:43:34;7.40;;;2.80;;
49578;SDS011;35483;50.828;3.228;2023-12-20T02:46:00;4.38;;;2.47;;
49578;SDS011;35483;50.828;3.228;2023-12-20T02:48:26;7.45;;;3.03;;
49578;SDS011;35483;50.828;3.228;2023-12-20T02:50:52;8.90;;;3.00;;
49578;SDS011;35483;50.828;3.228;2023-12-20T02:53:18;7.93;;;2.42;;
49578;SDS011;35483;50.828;3.228;2023-12-20T02:55:43;9.63;;;2.63;;
49578;SDS011;35483;50.828;3.228;2023-12-20T02:58:09;11.90;;;2.80;;
49578;SDS011;35483;50.828;3.228;2023-12-20T03:00:35;6.82;;;2.95;;
49578;SDS011;35483;50.828;3.228;2023-12-20T03:03:01;6.28;;;2.88;;
49578;SDS011;35483;50.828;3.228;2023-12-20T03:05:26;5.05;;;3.10;;
49578;SDS011;35483;50.828;3.228;2023-12-20T03:07:52;10.40;;;3.05;;
49578;SDS011;35483;50.828;3.228;2023-12-20T03:10:18;10.30;;;3.20;;
49578;SDS011;35483;50.828;3.228;2023-12-20T03:12:44;13.48;;;4.32;;
49578;SDS011;35483;50.828;3.228;2023-12-20T03:15:10;7.10;;;3.30;;
49578;SDS011;35483;50.828;3.228;2023-12-20T03:17:36;11.35;;;2.65;;
49578;SDS011;35483;50.828;3.228;2023-12-20T03:20:02;10.57;;;2.78;;
49578;SDS011;35483;50.828;3.228;2023-12-20T03:22:28;10.60;;;2.88;;
49578;SDS011;35483;50.828;3.228;2023-12-20T03:24:54;9.02;;;3.47;;
49578;SDS011;35483;50.828;3.228;2023-12-20T03:27:20;12.77;;;3.50;;
49578;SDS011;35483;50.828;3.228;2023-12-20T03:29:46;5.97;;;2.53;;
49578;SDS011;35483;50.828;3.228;2023-12-20T03:32:12;11.65;;;3.13;;
49578;SDS011;35483;50.828;3.228;2023-12-20T03:34:37;9.60;;;3.22;;
49578;SDS011;35483;50.828;3.228;2023-12-20T03:37:03;13.00;;;3.80;;
49578;SDS011;35483;50.828;3.228;2023-12-20T03:39:29;10.68;;;3.15;;
49578;SDS011;35483;50.828;3.228;2023-12-20T03:41:55;8.32;;;2.60;;
49578;SDS011;35483;50.828;3.228;2023-12-20T03:44:20;12.43;;;3.33;;
49578;SDS011;35483;50.828;3.228;2023-12-20T03:46:46;9.18;;;2.90;;
49578;SDS011;35483;50.828;3.228;2023-12-20T03:49:14;9.60;;;3.00;;
49578;SDS011;35483;50.828;3.228;2023-12-20T03:51:39;10.45;;;3.22;;
49578;SDS011;35483;50.828;3.228;2023-12-20T03:54:07;13.93;;;3.70;;
49578;SDS011;35483;50.828;3.228;2023-12-20T03:56:32;7.53;;;3.85;;
49578;SDS011;35483;50.828;3.228;2023-12-20T03:58:58;8.27;;;2.90;;
49578;SDS011;35483;50.828;3.228;2023-12-20T04:01:24;10.48;;;2.85;;
49578;SDS011;35483;50.828;3.228;2023-12-20T04:03:51;7.38;;;3.00;;
49578;SDS011;35483;50.828;3.228;2023-12-20T04:06:17;12.90;;;3.83;;
49578;SDS011;35483;50.828;3.228;2023-12-20T04:08:43;11.48;;;3.00;;
49578;SDS011;35483;50.828;3.228;2023-12-20T04:11:09;8.45;;;2.92;;
49578;SDS011;35483;50.828;3.228;2023-12-20T04:13:34;10.30;;;2.85;;
49578;SDS011;35483;50.828;3.228;2023-12-20T04:16:00;5.95;;;2.40;;
49578;SDS011;35483;50.828;3.228;2023-12-20T04:18:26;9.38;;;2.85;;
49578;SDS011;35483;50.828;3.228;2023-12-20T04:20:53;8.23;;;2.78;;
49578;SDS011;35483;50.828;3.228;2023-12-20T04:23:18;9.45;;;2.88;;
49578;SDS011;35483;50.828;3.228;2023-12-20T04:25:44;11.73;;;3.53;;
49578;SDS011;35483;50.828;3.228;2023-12-20T04:28:10;6.18;;;2.67;;
49578;SDS011;35483;50.828;3.228;2023-12-20T04:30:36;9.40;;;3.30;;
49578;SDS011;35483;50.828;3.228;2023-12-20T04:33:01;8.38;;;2.80;;
49578;SDS011;35483;50.828;3.228;2023-12-20T04:35:27;7.53;;;2.70;;
49578;SDS011;35483;50.828;3.228;2023-12-20T04:37:53;11.50;;;2.97;;
49578;SDS011;35483;50.828;3.228;2023-12-20T04:40:19;8.82;;;3.10;;
49578;SDS011;35483;50.828;3.228;2023-12-20T04:42:45;8.07;;;3.13;;
49578;SDS011;35483;50.828;3.228;2023-12-20T04:45:11;5.43;;;2.55;;
49578;SDS011;35483;50.828;3.228;2023-12-20T04:47:38;13.95;;;2.65;;
49578;SDS011;35483;50.828;3.228;2023-12-20T04:50:04;9.43;;;3.15;;
49578;SDS011;35483;50.828;3.228;2023-12-20T04:52:31;6.43;;;2.67;;
49578;SDS011;35483;50.828;3.228;2023-12-20T04:54:56;8.10;;;3.28;;
49578;SDS011;35483;50.828;3.228;2023-12-20T04:57:22;11.15;;;3.00;;
49578;SDS011;35483;50.828;3.228;2023-12-20T04:59:48;11.23;;;2.42;;
49578;SDS011;35483;50.828;3.228;2023-12-20T05:02:14;7.55;;;2.60;;
49578;SDS011;35483;50.828;3.228;2023-12-20T05:04:40;8.57;;;2.95;;
49578;SDS011;35483;50.828;3.228;2023-12-20T05:07:06;8.68;;;2.55;;
49578;SDS011;35483;50.828;3.228;2023-12-20T05:09:32;9.82;;;2.90;;
49578;SDS011;35483;50.828;3.228;2023-12-20T05:11:58;9.68;;;2.65;;
49578;SDS011;35483;50.828;3.228;2023-12-20T05:14:25;8.40;;;3.17;;
49578;SDS011;35483;50.828;3.228;2023-12-20T05:16:51;14.20;;;3.22;;
49578;SDS011;35483;50.828;3.228;2023-12-20T05:19:17;7.47;;;2.55;;
49578;SDS011;35483;50.828;3.228;2023-12-20T05:21:42;7.15;;;2.55;;
49578;SDS011;35483;50.828;3.228;2023-12-20T05:24:08;10.88;;;3.08;;
49578;SDS011;35483;50.828;3.228;2023-12-20T05:26:34;8.25;;;2.50;;
49578;SDS011;35483;50.828;3.228;2023-12-20T05:29:00;9.18;;;3.15;;
49578;SDS011;35483;50.828;3.228;2023-12-20T05:31:26;7.80;;;2.75;;
49578;SDS011;35483;50.828;3.228;2023-12-20T05:33:52;14.23;;;3.45;;
49578;SDS011;35483;50.828;3.228;2023-12-20T05:36:18;6.20;;;2.60;;
49578;SDS011;35483;50.828;3.228;2023-12-20T05:38:44;6.20;;;2.33;;
49578;SDS011;35483;50.828;3.228;2023-12-20T05:41:09;5.75;;;2.75;;
49578;SDS011;35483;50.828;3.228;2023-12-20T05:43:35;9.38;;;2.53;;
49578;SDS011;35483;50.828;3.228;2023-12-20T05:46:01;10.20;;;2.75;;
49578;SDS011;35483;50.828;3.228;2023-12-20T05:48:27;8.23;;;2.70;;
49578;SDS011;35483;50.828;3.228;2023-12-20T05:50:53;9.80;;;2.47;;
49578;SDS011;35483;50.828;3.228;2023-12-20T05:53:18;8.70;;;2.35;;
49578;SDS011;35483;50.828;3.228;2023-12-20T05:55:44;7.75;;;2.72;;
49578;SDS011;35483;50.828;3.228;2023-12-20T05:58:10;9.57;;;3.22;;
49578;SDS011;35483;50.828;3.228;2023-12-20T06:00:35;11.25;;;2.42;;
49578;SDS011;35483;50.828;3.228;2023-12-20T06:03:01;8.45;;;2.90;;
49578;SDS011;35483;50.828;3.228;2023-12-20T06:05:27;6.30;;;2.70;;
49578;SDS011;35483;50.828;3.228;2023-12-20T06:07:53;10.73;;;2.70;;
49578;SDS011;35483;50.828;3.228;2023-12-20T06:10:21;11.85;;;3.05;;
49578;SDS011;35483;50.828;3.228;2023-12-20T06:12:47;8.40;;;3.08;;
49578;SDS011;35483;50.828;3.228;2023-12-20T06:15:15;10.07;;;3.85;;
49578;SDS011;35483;50.828;3.228;2023-12-20T06:17:40;10.82;;;2.63;;
49578;SDS011;35483;50.828;3.228;2023-12-20T06:20:07;8.38;;;3.03;;
49578;SDS011;35483;50.828;3.228;2023-12-20T06:22:34;9.13;;;3.33;;
49578;SDS011;35483;50.828;3.228;2023-12-20T06:25:01;9.25;;;2.90;;
49578;SDS011;35483;50.828;3.228;2023-12-20T06:27:28;13.50;;;3.47;;
49578;SDS011;35483;50.828;3.228;2023-12-20T06:29:54;9.25;;;3.08;;
49578;SDS011;35483;50.828;3.228;2023-12-20T06:32:20;11.75;;;2.70;;
49578;SDS011;35483;50.828;3.228;2023-12-20T06:34:45;7.53;;;3.00;;
49578;SDS011;35483;50.828;3.228;2023-12-20T06:37:11;8.10;;;3.30;;
49578;SDS011;35483;50.828;3.228;2023-12-20T06:39:37;6.03;;;2.60;;
49578;SDS011;35483;50.828;3.228;2023-12-20T06:42:03;5.80;;;3.15;;
49578;SDS011;35483;50.828;3.228;2023-12-20T06:44:28;8.68;;;2.80;;
49578;SDS011;35483;50.828;3.228;2023-12-20T06:46:54;6.05;;;2.35;;
49578;SDS011;35483;50.828;3.228;2023-12-20T06:49:20;7.22;;;3.05;;
49578;SDS011;35483;50.828;3.228;2023-12-20T06:51:46;7.47;;;2.85;;
49578;SDS011;35483;50.828;3.228;2023-12-20T06:54:11;11.68;;;3.53;;
49578;SDS011;35483;50.828;3.228;2023-12-20T06:56:37;9.18;;;3.60;;
49578;SDS011;35483;50.828;3.228;2023-12-20T06:59:03;11.02;;;2.83;;
49578;SDS011;35483;50.828;3.228;2023-12-20T07:01:29;8.90;;;3.03;;
49578;SDS011;35483;50.828;3.228;2023-12-20T07:03:55;8.02;;;2.90;;
49578;SDS011;35483;50.828;3.228;2023-12-20T07:06:20;10.30;;;3.40;;
49578;SDS011;35483;50.828;3.228;2023-12-20T07:08:46;6.85;;;3.80;;
49578;SDS011;35483;50.828;3.228;2023-12-20T07:11:12;9.18;;;3.20;;
49578;SDS011;35483;50.828;3.228;2023-12-20T07:13:37;13.23;;;3.80;;
49578;SDS011;35483;50.828;3.228;2023-12-20T07:16:03;8.27;;;3.40;;
49578;SDS011;35483;50.828;3.228;2023-12-20T07:18:29;9.00;;;3.88;;
49578;SDS011;35483;50.828;3.228;2023-12-20T07:20:55;8.48;;;3.47;;
49578;SDS011;35483;50.828;3.228;2023-12-20T07:23:20;7.65;;;3.50;;
49578;SDS011;35483;50.828;3.228;2023-12-20T07:25:46;10.02;;;3.42;;
49578;SDS011;35483;50.828;3.228;2023-12-20T07:28:12;12.63;;;4.70;;
49578;SDS011;35483;50.828;3.228;2023-12-20T07:30:38;13.00;;;8.57;;
49578;SDS011;35483;50.828;3.228;2023-12-20T07:33:04;10.90;;;4.63;;
49578;SDS011;35483;50.828;3.228;2023-12-20T07:35:30;8.90;;;4.22;;
49578;SDS011;35483;50.828;3.228;2023-12-20T07:37:55;8.88;;;3.58;;
49578;SDS011;35483;50.828;3.228;2023-12-20T07:40:21;11.00;;;3.70;;
49578;SDS011;35483;50.828;3.228;2023-12-20T07:42:48;8.85;;;3.70;;
49578;SDS011;35483;50.828;3.228;2023-12-20T07:45:14;10.55;;;3.60;;
49578;SDS011;35483;50.828;3.228;2023-12-20T07:47:40;12.93;;;3.92;;
49578;SDS011;35483;50.828;3.228;2023-12-20T07:50:06;12.15;;;3.90;;
49578;SDS011;35483;50.828;3.228;2023-12-20T07:52:32;8.07;;;3.65;;
49578;SDS011;35483;50.828;3.228;2023-12-20T07:54:57;14.13;;;4.50;;
49578;SDS011;35483;50.828;3.228;2023-12-20T07:57:23;12.70;;;4.30;;
49578;SDS011;35483;50.828;3.228;2023-12-20T07:59:49;14.68;;;3.92;;
49578;SDS011;35483;50.828;3.228;2023-12-20T08:02:15;10.65;;;4.28;;
49578;SDS011;35483;50.828;3.228;2023-12-20T08:04:40;9.55;;;3.75;;
49578;SDS011;35483;50.828;3.228;2023-12-20T08:07:06;10.10;;;3.65;;
49578;SDS011;35483;50.828;3.228;2023-12-20T08:09:32;11.73;;;4.75;;
49578;SDS011;35483;50.828;3.228;2023-12-20T08:11:59;12.00;;;5.10;;
49578;SDS011;35483;50.828;3.228;2023-12-20T08:14:25;10.18;;;4.60;;
49578;SDS011;35483;50.828;3.228;2023-12-20T08:16:50;12.13;;;4.32;;
49578;SDS011;35483;50.828;3.228;2023-12-20T08:19:16;13.73;;;4.35;;
49578;SDS011;35483;50.828;3.228;2023-12-20T08:21:42;12.48;;;4.50;;
49578;SDS011;35483;50.828;3.228;2023-12-20T08:24:08;12.80;;;4.45;;
49578;SDS011;35483;50.828;3.228;2023-12-20T08:26:33;15.55;;;4.82;;
49578;SDS011;35483;50.828;3.228;2023-12-20T08:28:59;14.23;;;4.63;;
49578;SDS011;35483;50.828;3.228;2023-12-20T08:31:25;14.45;;;4.63;;
49578;SDS011;35483;50.828;3.228;2023-12-20T08:33:51;12.48;;;4.05;;
49578;SDS011;35483;50.828;3.228;2023-12-20T08:36:18;10.80;;;3.90;;
49578;SDS011;35483;50.828;3.228;2023-12-20T08:38:46;10.98;;;4.47;;
49578;SDS011;35483;50.828;3.228;2023-12-20T08:41:13;10.55;;;4.15;;
49578;SDS011;35483;50.828;3.228;2023-12-20T08:43:38;8.55;;;3.88;;
49578;SDS011;35483;50.828;3.228;2023-12-20T08:46:07;10.23;;;3.97;;
49578;SDS011;35483;50.828;3.228;2023-12-20T08:48:34;9.82;;;4.53;;
49578;SDS011;35483;50.828;3.228;2023-12-20T08:51:00;10.80;;;4.57;;
49578;SDS011;35483;50.828;3.228;2023-12-20T08:53:26;9.68;;;3.88;;
49578;SDS011;35483;50.828;3.228;2023-12-20T08:55:52;14.98;;;3.72;;
49578;SDS011;35483;50.828;3.228;2023-12-20T08:58:17;13.20;;;3.60;;
49578;SDS011;35483;50.828;3.228;2023-12-20T09:00:43;13.65;;;3.80;;
49578;SDS011;35483;50.828;3.228;2023-12-20T09:03:11;14.38;;;4.72;;
49578;SDS011;35483;50.828;3.228;2023-12-20T09:05:36;7.85;;;3.00;;
49578;SDS011;35483;50.828;3.228;2023-12-20T09:08:02;9.80;;;2.92;;
49578;SDS011;35483;50.828;3.228;2023-12-20T09:10:28;10.25;;;3.22;;
49578;SDS011;35483;50.828;3.228;2023-12-20T09:12:54;13.80;;;3.95;;
49578;SDS011;35483;50.828;3.228;2023-12-20T09:15:25;7.57;;;2.85;;
49578;SDS011;35483;50.828;3.228;2023-12-20T09:17:52;13.30;;;3.65;;
49578;SDS011;35483;50.828;3.228;2023-12-20T09:20:18;9.20;;;3.67;;
49578;SDS011;35483;50.828;3.228;2023-12-20T09:22:44;8.55;;;3.47;;
49578;SDS011;35483;50.828;3.228;2023-12-20T09:25:10;12.38;;;3.40;;
49578;SDS011;35483;50.828;3.228;2023-12-20T09:27:36;7.22;;;3.03;;
49578;SDS011;35483;50.828;3.228;2023-12-20T09:30:02;8.45;;;3.55;;
49578;SDS011;35483;50.828;3.228;2023-12-20T09:32:30;10.88;;;3.53;;
49578;SDS011;35483;50.828;3.228;2023-12-20T09:34:56;11.20;;;3.72;;
49578;SDS011;35483;50.828;3.228;2023-12-20T09:37:22;12.18;;;3.58;;
49578;SDS011;35483;50.828;3.228;2023-12-20T09:39:51;6.75;;;3.28;;
49578;SDS011;35483;50.828;3.228;2023-12-20T09:42:17;12.95;;;4.57;;
49578;SDS011;35483;50.828;3.228;2023-12-20T09:45:05;8.85;;;3.08;;
49578;SDS011;35483;50.828;3.228;2023-12-20T09:47:33;8.75;;;3.00;;
49578;SDS011;35483;50.828;3.228;2023-12-20T09:50:00;9.43;;;3.45;;
49578;SDS011;35483;50.828;3.228;2023-12-20T09:52:28;12.20;;;3.88;;
49578;SDS011;35483;50.828;3.228;2023-12-20T09:54:54;12.07;;;3.30;;
49578;SDS011;35483;50.828;3.228;2023-12-20T09:57:22;9.18;;;3.33;;
49578;SDS011;35483;50.828;3.228;2023-12-20T09:59:48;9.27;;;3.22;;
49578;SDS011;35483;50.828;3.228;2023-12-20T10:02:14;7.20;;;3.13;;
49578;SDS011;35483;50.828;3.228;2023-12-20T10:04:46;12.77;;;3.47;;
49578;SDS011;35483;50.828;3.228;2023-12-20T10:07:13;10.38;;;2.92;;
49578;SDS011;35483;50.828;3.228;2023-12-20T10:09:39;9.23;;;2.78;;
49578;SDS011;35483;50.828;3.228;2023-12-20T10:12:06;10.20;;;2.88;;
49578;SDS011;35483;50.828;3.228;2023-12-20T10:14:32;13.50;;;3.60;;
49578;SDS011;35483;50.828;3.228;2023-12-20T10:17:04;7.22;;;2.90;;
49578;SDS011;35483;50.828;3.228;2023-12-20T10:19:31;5.45;;;2.60;;
49578;SDS011;35483;50.828;3.228;2023-12-20T10:22:01;9.38;;;3.13;;
49578;SDS011;35483;50.828;3.228;2023-12-20T10:24:29;10.25;;;3.42;;
49578;SDS011;35483;50.828;3.228;2023-12-20T10:27:02;15.63;;;3.50;;
49578;SDS011;35483;50.828;3.228;2023-12-20T10:29:32;6.55;;;2.78;;
49578;SDS011;35483;50.828;3.228;2023-12-20T10:34:52;8.35;;;3.38;;
49578;SDS011;35483;50.828;3.228;2023-12-20T10:37:19;9.75;;;3.35;;
49578;SDS011;35483;50.828;3.228;2023-12-20T10:39:52;10.20;;;3.20;;
49578;SDS011;35483;50.828;3.228;2023-12-20T10:42:21;8.10;;;2.20;;
49578;SDS011;35483;50.828;3.228;2023-12-20T10:44:51;8.88;;;2.67;;
49578;SDS011;35483;50.828;3.228;2023-12-20T10:47:19;6.25;;;2.58;;
49578;SDS011;35483;50.828;3.228;2023-12-20T10:49:46;7.00;;;2.58;;
49578;SDS011;35483;50.828;3.228;2023-12-20T10:52:12;8.18;;;2.80;;
49578;SDS011;35483;50.828;3.228;2023-12-20T10:54:39;8.68;;;2.58;;
49578;SDS011;35483;50.828;3.228;2023-12-20T10:57:06;5.63;;;2.45;;
49578;SDS011;35483;50.828;3.228;2023-12-20T10:59:38;12.52;;;3.03;;
49578;SDS011;35483;50.828;3.228;2023-12-20T11:02:05;6.78;;;2.67;;
49578;SDS011;35483;50.828;3.228;2023-12-20T11:04:40;6.13;;;2.30;;
49578;SDS011;35483;50.828;3.228;2023-12-20T11:07:32;10.75;;;2.42;;
49578;SDS011;35483;50.828;3.228;2023-12-20T11:10:26;8.50;;;3.00;;
49578;SDS011;35483;50.828;3.228;2023-12-20T11:12:58;5.78;;;2.60;;
49578;SDS011;35483;50.828;3.228;2023-12-20T11:15:26;9.57;;;2.90;;
49578;SDS011;35483;50.828;3.228;2023-12-20T11:17:55;7.00;;;2.75;;
49578;SDS011;35483;50.828;3.228;2023-12-20T11:20:22;8.80;;;2.70;;
49578;SDS011;35483;50.828;3.228;2023-12-20T11:22:52;7.47;;;2.92;;
49578;SDS011;35483;50.828;3.228;2023-12-20T11:25:19;5.30;;;2.45;;
49578;SDS011;35483;50.828;3.228;2023-12-20T11:27:47;4.90;;;2.33;;
49578;SDS011;35483;50.828;3.228;2023-12-20T11:30:56;9.57;;;2.95;;
49578;SDS011;35483;50.828;3.228;2023-12-20T11:33:45;6.90;;;2.60;;
49578;SDS011;35483;50.828;3.228;2023-12-20T11:36:18;8.00;;;2.90;;
49578;SDS011;35483;50.828;3.228;2023-12-20T11:38:53;7.57;;;2.70;;
49578;SDS011;35483;50.828;3.228;2023-12-20T11:41:22;10.77;;;3.35;;
49578;SDS011;35483;50.828;3.228;2023-12-20T11:43:49;4.78;;;2.15;;
49578;SDS011;35483;50.828;3.228;2023-12-20T11:46:19;10.07;;;2.60;;
49578;SDS011;35483;50.828;3.228;2023-12-20T11:48:45;8.95;;;3.28;;
49578;SDS011;35483;50.828;3.228;2023-12-20T11:51:12;8.50;;;2.95;;
49578;SDS011;35483;50.828;3.228;2023-12-20T11:53:39;7.95;;;2.53;;
49578;SDS011;35483;50.828;3.228;2023-12-20T11:56:07;7.15;;;2.65;;
49578;SDS011;35483;50.828;3.228;2023-12-20T11:58:33;7.72;;;2.78;;
49578;SDS011;35483;50.828;3.228;2023-12-20T12:01:00;8.70;;;2.55;;
49578;SDS011;35483;50.828;3.228;2023-12-20T12:03:27;4.57;;;1.95;;
49578;SDS011;35483;50.828;3.228;2023-12-20T12:05:53;5.63;;;2.53;;
49578;SDS011;35483;50.828;3.228;2023-12-20T12:08:19;6.88;;;1.98;;
49578;SDS011;35483;50.828;3.228;2023-12-20T12:10:45;13.10;;;2.47;;
49578;SDS011;35483;50.828;3.228;2023-12-20T12:13:11;8.38;;;2.58;;
49578;SDS011;35483;50.828;3.228;2023-12-20T12:15:37;6.95;;;2.50;;
49578;SDS011;35483;50.828;3.228;2023-12-20T12:18:03;7.13;;;2.30;;
49578;SDS011;35483;50.828;3.228;2023-12-20T12:20:30;6.57;;;2.22;;
49578;SDS011;35483;50.828;3.228;2023-12-20T12:25:32;5.63;;;1.92;;
49578;SDS011;35483;50.828;3.228;2023-12-20T12:28:00;6.70;;;1.83;;
49578;SDS011;35483;50.828;3.228;2023-12-20T12:30:26;8.45;;;2.63;;
49578;SDS011;35483;50.828;3.228;2023-12-20T12:32:53;8.30;;;2.03;;
49578;SDS011;35483;50.828;3.228;2023-12-20T12:35:20;5.15;;;2.10;;
49578;SDS011;35483;50.828;3.228;2023-12-20T12:37:46;6.00;;;2.20;;
49578;SDS011;35483;50.828;3.228;2023-12-20T12:40:13;7.20;;;1.83;;
49578;SDS011;35483;50.828;3.228;2023-12-20T12:42:39;6.95;;;2.42;;
49578;SDS011;35483;50.828;3.228;2023-12-20T12:45:07;6.90;;;2.03;;
49578;SDS011;35483;50.828;3.228;2023-12-20T12:47:33;5.47;;;1.80;;
49578;SDS011;35483;50.828;3.228;2023-12-20T12:50:00;8.77;;;1.92;;
49578;SDS011;35483;50.828;3.228;2023-12-20T12:52:26;7.18;;;1.90;;
49578;SDS011;35483;50.828;3.228;2023-12-20T12:54:52;10.18;;;1.70;;
49578;SDS011;35483;50.828;3.228;2023-12-20T12:57:18;7.03;;;2.10;;
49578;SDS011;35483;50.828;3.228;2023-12-20T12:59:45;5.75;;;2.38;;
49578;SDS011;35483;50.828;3.228;2023-12-20T13:02:14;8.02;;;2.10;;
49578;SDS011;35483;50.828;3.228;2023-12-20T13:04:41;3.95;;;1.50;;
49578;SDS011;35483;50.828;3.228;2023-12-20T13:07:07;4.72;;;1.98;;
49578;SDS011;35483;50.828;3.228;2023-12-20T13:09:37;4.70;;;1.73;;
49578;SDS011;35483;50.828;3.228;2023-12-20T13:12:04;6.60;;;2.17;;
49578;SDS011;35483;50.828;3.228;2023-12-20T13:14:34;7.22;;;1.52;;
49578;SDS011;35483;50.828;3.228;2023-12-20T13:17:02;6.63;;;1.70;;
49578;SDS011;35483;50.828;3.228;2023-12-20T13:19:29;8.10;;;2.00;;
49578;SDS011;35483;50.828;3.228;2023-12-20T13:21:55;5.18;;;1.52;;
49578;SDS011;35483;50.828;3.228;2023-12-20T13:24:21;6.75;;;1.98;;
49578;SDS011;35483;50.828;3.228;2023-12-20T13:26:47;6.30;;;1.58;;
49578;SDS011;35483;50.828;3.228;2023-12-20T13:29:13;6.78;;;1.60;;
49578;SDS011;35483;50.828;3.228;2023-12-20T13:31:39;6.50;;;2.70;;
49578;SDS011;35483;50.828;3.228;2023-12-20T13:34:05;6.95;;;2.75;;
49578;SDS011;35483;50.828;3.228;2023-12-20T13:36:31;4.88;;;2.33;;
49578;SDS011;35483;50.828;3.228;2023-12-20T13:38:57;5.15;;;1.73;;
49578;SDS011;35483;50.828;3.228;2023-12-20T13:41:23;5.45;;;1.83;;
49578;SDS011;35483;50.828;3.228;2023-12-20T13:43:49;4.25;;;1.90;;
49578;SDS011;35483;50.828;3.228;2023-12-20T13:46:14;5.57;;;2.13;;
49578;SDS011;35483;50.828;3.228;2023-12-20T13:48:40;4.85;;;2.10;;
49578;SDS011;35483;50.828;3.228;2023-12-20T13:51:06;6.82;;;2.20;;
49578;SDS011;35483;50.828;3.228;2023-12-20T13:53:32;7.90;;;2.30;;
49578;SDS011;35483;50.828;3.228;2023-12-20T13:55:58;4.28;;;1.73;;
49578;SDS011;35483;50.828;3.228;2023-12-20T13:58:25;3.80;;;1.63;;
49578;SDS011;35483;50.828;3.228;2023-12-20T14:00:51;3.88;;;1.80;;
49578;SDS011;35483;50.828;3.228;2023-12-20T14:03:19;6.70;;;2.22;;
49578;SDS011;35483;50.828;3.228;2023-12-20T14:05:45;9.27;;;2.38;;
49578;SDS011;35483;50.828;3.228;2023-12-20T14:08:10;4.70;;;2.03;;
49578;SDS011;35483;50.828;3.228;2023-12-20T14:10:36;7.63;;;2.63;;
49578;SDS011;35483;50.828;3.228;2023-12-20T14:13:03;8.23;;;2.05;;
49578;SDS011;35483;50.828;3.228;2023-12-20T14:15:30;8.38;;;2.17;;
49578;SDS011;35483;50.828;3.228;2023-12-20T14:18:02;6.03;;;2.10;;
49578;SDS011;35483;50.828;3.228;2023-12-20T14:20:31;4.43;;;1.80;;
49578;SDS011;35483;50.828;3.228;2023-12-20T14:22:59;6.13;;;2.15;;
49578;SDS011;35483;50.828;3.228;2023-12-20T14:25:26;4.53;;;1.80;;
49578;SDS011;35483;50.828;3.228;2023-12-20T14:27:52;3.97;;;1.70;;
49578;SDS011;35483;50.828;3.228;2023-12-20T14:30:17;7.82;;;2.22;;
49578;SDS011;35483;50.828;3.228;2023-12-20T14:32:43;7.45;;;2.35;;
49578;SDS011;35483;50.828;3.228;2023-12-20T14:35:09;7.57;;;2.40;;
49578;SDS011;35483;50.828;3.228;2023-12-20T14:37:35;4.50;;;1.92;;
49578;SDS011;35483;50.828;3.228;2023-12-20T14:40:08;8.73;;;2.40;;
49578;SDS011;35483;50.828;3.228;2023-12-20T14:42:41;5.20;;;2.17;;
49578;SDS011;35483;50.828;3.228;2023-12-20T14:45:10;7.40;;;2.08;;